Time;durP1;ratioP1;P1;durP2;ratioP2;P2;SDS_P1;SDS_P2;PMS_P1;PMS_P2;Temp;Humidity;BMP_temperature;BMP_pressure;BME280_temperature;BME280_humidity;BME280_pressure;Samples;Min_cycle;Max_cycle;Signal;HPM_P1;HPM_P2
2024/01/11 00:02:36;;;;;;;25.90;8.70;;;;;;;-7.03;100.00;101925.14;4951284;57;1143045;-77
2024/01/11 00:07:42;;;;;;;62.60;19.10;;;;;;;-7.00;100.00;101933.74;4942167;58;1142950;-75
2024/01/11 00:12:47;;;;;;;67.57;20.30;;;;;;;-7.01;100.00;101931.14;4925381;58;1144941;-77
2024/01/11 00:17:53;;;;;;;29.18;10.75;;;;;;;-7.04;100.00;101902.42;4870378;58;1145256;-75
2024/01/11 00:22:58;;;;;;;54.80;16.65;;;;;;;-7.06;100.00;101900.23;4930330;57;1145202;-74
2024/01/11 00:28:04;;;;;;;61.73;17.37;;;;;;;-7.07;100.00;101901.50;4973637;56;1145023;-76
2024/01/11 00:33:10;;;;;;;44.87;15.97;;;;;;;-7.04;100.00;101895.98;4956633;57;1145088;-78
2024/01/11 00:38:15;;;;;;;49.03;15.07;;;;;;;-7.01;100.00;101885.73;4924838;58;1144714;-80
2024/01/11 00:43:21;;;;;;;34.60;8.97;;;;;;;-6.94;100.00;101884.13;4929290;57;1145005;-78
2024/01/11 00:48:27;;;;;;;22.43;8.00;;;;;;;-6.83;100.00;101872.29;4930641;57;1142824;-78
2024/01/11 00:53:33;;;;;;;14.03;4.60;;;;;;;-6.72;100.00;101880.19;4961603;56;1142683;-79
2024/01/11 00:58:39;;;;;;;24.83;10.10;;;;;;;-6.63;100.00;101894.03;4938961;57;1142946;-78
2024/01/11 01:03:45;;;;;;;31.83;12.37;;;;;;;-6.52;100.00;101904.05;4937586;57;1145103;-79
2024/01/11 01:08:50;;;;;;;26.93;9.07;;;;;;;-6.43;100.00;101887.89;4944777;57;1145084;-77
2024/01/11 01:13:56;;;;;;;23.43;10.17;;;;;;;-6.39;100.00;101871.63;4956893;57;1151398;-77
2024/01/11 01:19:02;;;;;;;25.33;9.97;;;;;;;-6.36;100.00;101892.69;4986387;57;1145900;-77
2024/01/11 01:24:07;;;;;;;29.93;8.37;;;;;;;-6.33;100.00;101876.87;4970600;56;1143032;-76
2024/01/11 01:29:13;;;;;;;22.37;8.40;;;;;;;-6.28;100.00;101888.52;4967602;56;1142855;-76
2024/01/11 01:34:19;;;;;;;12.10;6.17;;;;;;;-6.22;100.00;101862.83;4996349;57;1142950;-78
2024/01/11 01:39:25;;;;;;;22.63;10.67;;;;;;;-6.19;100.00;101854.73;4963642;56;1142990;-77
2024/01/11 01:44:30;;;;;;;34.70;11.93;;;;;;;-6.12;100.00;101872.00;4933612;55;1145373;-78
2024/01/11 01:49:37;;;;;;;26.23;8.33;;;;;;;-6.04;100.00;101863.92;4976499;57;1144910;-74
2024/01/11 01:54:43;;;;;;;33.97;12.47;;;;;;;-5.98;100.00;101871.30;4907884;56;1143014;-75
2024/01/11 01:59:52;;;;;;;20.37;8.17;;;;;;;-5.93;100.00;101863.17;4963312;57;1145125;-75
2024/01/11 02:04:58;;;;;;;25.55;9.98;;;;;;;-5.92;100.00;101861.91;4971700;56;1143263;-77
2024/01/11 02:10:05;;;;;;;31.20;10.40;;;;;;;-5.85;100.00;101862.81;4966828;57;1142863;-77
2024/01/11 02:15:10;;;;;;;31.33;10.87;;;;;;;-5.82;100.00;101860.28;4969484;57;1144894;-78
2024/01/11 02:20:16;;;;;;;22.25;8.83;;;;;;;-5.77;100.00;101865.03;4925258;56;1145061;-79
2024/01/11 02:25:21;;;;;;;29.77;11.07;;;;;;;-5.74;100.00;101838.89;4955358;56;1142877;-76
2024/01/11 02:30:27;;;;;;;31.90;10.40;;;;;;;-5.71;100.00;101827.75;4907640;57;1145064;-78
2024/01/11 02:35:33;;;;;;;22.10;10.50;;;;;;;-5.66;100.00;101841.55;4958023;57;1145403;-74
2024/01/11 02:40:40;;;;;;;23.07;10.20;;;;;;;-5.60;100.00;101849.75;4948156;57;1145031;-77
2024/01/11 02:45:45;;;;;;;28.93;7.43;;;;;;;-5.54;100.00;101842.95;4947196;57;1145152;-79
2024/01/11 02:50:51;;;;;;;34.33;9.07;;;;;;;-5.50;100.00;101851.59;4962269;56;1142917;-78
2024/01/11 02:55:56;;;;;;;20.20;6.80;;;;;;;-5.47;100.00;101851.59;4926196;57;1143104;-75
2024/01/11 03:01:02;;;;;;;29.90;12.10;;;;;;;-5.43;100.00;101870.97;4982619;57;1142552;-76
2024/01/11 03:06:07;;;;;;;36.05;11.90;;;;;;;-5.41;100.00;101851.23;4970375;56;1144916;-76
2024/01/11 03:11:13;;;;;;;24.45;9.43;;;;;;;-5.38;100.00;101842.67;4968103;57;1144758;-78
2024/01/11 03:16:19;;;;;;;36.93;14.00;;;;;;;-5.35;100.00;101830.64;4993285;57;1142838;-75
2024/01/11 03:21:24;;;;;;;31.33;9.30;;;;;;;-5.30;100.00;101852.61;4939205;57;1144768;-75
2024/01/11 03:26:30;;;;;;;13.40;6.27;;;;;;;-5.28;100.00;101819.97;4967170;57;1142804;-77
2024/01/11 03:31:37;;;;;;;25.45;11.12;;;;;;;-5.25;100.00;101827.73;4948985;56;1142890;-78
2024/01/11 03:36:43;;;;;;;38.67;12.70;;;;;;;-5.22;100.00;101819.16;4952762;57;1144792;-74
2024/01/11 03:41:48;;;;;;;32.77;12.77;;;;;;;-5.19;100.00;101810.16;4945998;57;1145411;-76
2024/01/11 03:46:55;;;;;;;30.55;11.80;;;;;;;-5.18;100.00;101806.28;4957745;56;1145405;-80
2024/01/11 03:52:01;;;;;;;20.27;8.73;;;;;;;-5.20;100.00;101778.78;4979812;57;1144757;-76
2024/01/11 03:57:07;;;;;;;29.50;10.43;;;;;;;-5.13;100.00;101777.53;4931860;57;1143152;-76
2024/01/11 04:02:12;;;;;;;44.38;12.80;;;;;;;-5.10;100.00;101784.42;4924258;57;1145092;-75
2024/01/11 04:07:18;;;;;;;24.47;9.60;;;;;;;-5.05;100.00;101784.05;4955629;58;1145185;-75
2024/01/11 04:12:23;;;;;;;35.20;11.63;;;;;;;-5.02;100.00;101765.98;4917554;58;1142982;-78
2024/01/11 04:17:29;;;;;;;22.25;6.62;;;;;;;-4.99;100.00;101768.58;4942179;58;1144823;-77
2024/01/11 04:22:34;;;;;;;29.93;10.17;;;;;;;-4.94;100.00;101741.53;4948955;57;1143099;-76
2024/01/11 04:27:40;;;;;;;24.43;10.63;;;;;;;-4.90;100.00;101734.25;4974251;57;1145204;-74
2024/01/11 04:32:46;;;;;;;30.15;10.72;;;;;;;-4.87;100.00;101717.05;4954383;56;1144867;-77
2024/01/11 04:37:52;;;;;;;21.57;8.20;;;;;;;-4.84;100.00;101709.75;4965589;57;1145569;-77
2024/01/11 04:42:57;;;;;;;19.65;8.63;;;;;;;-4.81;100.00;101690.42;4930284;56;1143220;-77
2024/01/11 04:48:03;;;;;;;35.40;12.73;;;;;;;-4.77;100.00;101708.94;4935684;57;1143120;-69
2024/01/11 04:53:08;;;;;;;36.65;12.18;;;;;;;-4.74;100.00;101680.56;4945086;57;1144992;-78
2024/01/11 04:58:14;;;;;;;35.33;11.28;;;;;;;-4.74;100.00;101680.56;4897950;57;1144974;-81
2024/01/11 05:03:20;;;;;;;36.75;12.50;;;;;;;-4.74;100.00;101685.30;4935180;56;1145195;-79
2024/01/11 05:08:27;;;;;;;26.37;10.83;;;;;;;-4.69;100.00;101669.38;4981235;56;1145312;-81
2024/01/11 05:13:33;;;;;;;34.97;13.03;;;;;;;-4.62;100.00;101656.94;4931647;56;1145082;-79
2024/01/11 05:18:38;;;;;;;34.30;11.40;;;;;;;-4.55;100.00;101660.37;4957764;57;1145473;-82
2024/01/11 05:23:44;;;;;;;36.00;13.57;;;;;;;-4.49;100.00;101675.90;4924175;57;1142620;-77
2024/01/11 05:28:50;;;;;;;22.17;10.33;;;;;;;-4.45;100.00;101659.99;4975799;56;1142768;-80
2024/01/11 05:33:55;;;;;;;29.97;10.63;;;;;;;-4.40;100.00;101663.42;4898055;57;1145331;-78
2024/01/11 05:39:01;;;;;;;33.93;11.37;;;;;;;-4.40;100.00;101653.95;4875759;55;1145023;-80
2024/01/11 05:44:07;;;;;;;31.37;10.13;;;;;;;-4.39;100.00;101645.78;4937719;57;1145346;-80
2024/01/11 05:49:12;;;;;;;25.87;10.40;;;;;;;-4.39;100.00;101632.45;4873008;58;1145222;-78
2024/01/11 05:54:18;;;;;;;36.27;13.20;;;;;;;-4.35;100.00;101639.77;4798776;59;1145102;-77
2024/01/11 05:59:23;;;;;;;25.47;8.33;;;;;;;-4.32;100.00;101639.78;4960962;56;1144957;-77
2024/01/11 06:04:29;;;;;;;18.27;7.97;;;;;;;-4.30;100.00;101626.45;4949045;56;1142868;-79
2024/01/11 06:09:35;;;;;;;28.27;11.77;;;;;;;-4.29;100.00;101622.58;4947695;57;1142830;-76
2024/01/11 06:14:40;;;;;;;38.67;11.57;;;;;;;-4.27;100.00;101618.67;4964370;57;1144950;-77
2024/01/11 06:19:46;;;;;;;28.63;12.20;;;;;;;-4.25;100.00;101614.38;4955402;56;1144821;-76
2024/01/11 06:24:52;;;;;;;37.47;12.77;;;;;;;-4.21;100.00;101598.03;4721068;59;1145131;-81
2024/01/11 06:29:58;;;;;;;32.70;13.63;;;;;;;-4.19;100.00;101585.98;4783187;57;1142878;-78
2024/01/11 06:35:05;;;;;;;39.07;14.37;;;;;;;-4.16;100.00;101582.11;4915998;56;1143157;-77
2024/01/11 06:40:11;;;;;;;36.55;14.33;;;;;;;-4.13;100.00;101610.96;4897294;56;1143291;-79
2024/01/11 06:45:17;;;;;;;30.83;12.10;;;;;;;-4.09;100.00;101601.89;4953588;57;1142867;-75
2024/01/11 06:50:22;;;;;;;38.53;13.00;;;;;;;-4.06;100.00;101603.63;4986889;57;1143186;-84
2024/01/11 06:55:28;;;;;;;45.48;15.85;;;;;;;-4.06;100.00;101599.75;4968081;56;1144924;-76
2024/01/11 07:00:33;;;;;;;37.83;12.00;;;;;;;-4.03;100.00;101589.42;4960779;56;1145190;-77
2024/01/11 07:05:39;;;;;;;32.87;12.47;;;;;;;-4.03;100.00;101589.42;4979159;57;1142928;-81
2024/01/11 07:10:45;;;;;;;35.87;13.23;;;;;;;-4.00;100.00;101599.75;4991606;57;1142982;-74
2024/01/11 07:15:52;;;;;;;42.80;11.83;;;;;;;-3.96;100.00;101599.73;4981633;57;1187303;-74
2024/01/11 07:20:59;;;;;;;39.20;13.73;;;;;;;-3.94;100.00;101590.25;4982057;57;1218932;-76
2024/01/11 07:26:05;;;;;;;45.80;15.10;;;;;;;-3.93;100.00;101582.94;4953123;57;1145285;-75
2024/01/11 07:31:12;;;;;;;38.83;13.03;;;;;;;-3.90;100.00;101580.78;4955004;56;1143003;-76
2024/01/11 07:36:18;;;;;;;41.63;14.43;;;;;;;-3.85;100.00;101598.45;4929804;57;1145065;-81
2024/01/11 07:41:24;;;;;;;52.60;19.00;;;;;;;-3.80;100.00;101617.38;4918402;57;1143073;-82
2024/01/11 07:46:29;;;;;;;45.67;15.80;;;;;;;-3.76;100.00;101616.52;4965711;55;1242938;-77
2024/01/11 07:51:36;;;;;;;46.97;14.97;;;;;;;-3.72;100.00;101611.78;4955081;57;1247185;-77
2024/01/11 07:56:42;;;;;;;40.83;15.80;;;;;;;-3.67;100.00;101594.55;4983537;56;1143773;-77
2024/01/11 08:01:48;;;;;;;46.47;15.63;;;;;;;-3.65;100.00;101566.94;4984754;56;1165256;-78
2024/01/11 08:06:53;;;;;;;42.48;14.65;;;;;;;-3.60;100.00;101562.63;4918473;57;1240115;-73
2024/01/11 08:11:59;;;;;;;47.10;16.30;;;;;;;-3.53;100.00;101589.33;4942927;55;1251187;-81
2024/01/11 08:17:05;;;;;;;46.27;17.97;;;;;;;-3.47;100.00;101576.80;4956853;57;1218435;-79
2024/01/11 08:22:12;;;;;;;43.80;17.75;;;;;;;-3.40;100.00;101594.03;4940175;56;1242766;-72
2024/01/11 08:27:17;;;;;;;42.33;15.53;;;;;;;-3.34;100.00;101577.17;4953723;56;1255160;-84
2024/01/11 08:32:23;;;;;;;37.00;15.17;;;;;;;-3.26;100.00;101581.91;5004236;56;1243743;-75
2024/01/11 08:37:28;;;;;;;62.63;21.00;;;;;;;-3.22;100.00;101583.63;4978093;56;1249784;-75
2024/01/11 08:42:34;;;;;;;52.37;17.30;;;;;;;-3.18;100.00;101565.91;4975286;56;1249368;-79
2024/01/11 08:47:40;;;;;;;47.70;18.80;;;;;;;-3.15;100.00;101555.55;4955616;57;1142864;-77
2024/01/11 08:52:46;;;;;;;49.30;19.07;;;;;;;-3.09;100.00;101559.41;4948451;56;1222237;-77
2024/01/11 08:57:52;;;;;;;59.83;21.07;;;;;;;-3.04;100.00;101571.00;4968705;56;1254309;-76
2024/01/11 09:02:58;;;;;;;54.97;20.57;;;;;;;-2.97;100.00;101572.71;4990244;56;1247384;-75
2024/01/11 09:08:06;;;;;;;46.37;16.87;;;;;;;-2.92;100.00;101570.53;5000214;55;1142936;-83
2024/01/11 09:13:11;;;;;;;67.13;24.93;;;;;;;-2.88;100.00;101574.80;4929861;58;1143274;-76
2024/01/11 09:18:18;;;;;;;52.47;21.37;;;;;;;-2.81;100.00;101583.41;4969287;56;1143105;-74
2024/01/11 09:23:24;;;;;;;51.03;21.67;;;;;;;-2.74;100.00;101591.55;4973402;56;1142636;-72
2024/01/11 09:28:29;;;;;;;48.37;20.27;;;;;;;-2.65;100.00;101595.83;4949965;56;1142879;-79
2024/01/11 09:33:35;;;;;;;49.60;22.23;;;;;;;-2.56;100.00;101606.97;4916248;57;1142855;-77
2024/01/11 09:38:41;;;;;;;42.93;20.47;;;;;;;-2.44;100.00;101600.84;4898134;57;1142874;-78
2024/01/11 09:43:49;;;;;;;50.90;20.97;;;;;;;-2.31;100.00;101594.73;4924649;57;1245183;-76
2024/01/11 09:48:56;;;;;;;33.60;14.90;;;;;;;-2.19;100.00;101585.98;4954527;57;1176669;-76
2024/01/11 09:54:02;;;;;;;44.08;21.90;;;;;;;-2.07;100.00;101563.84;4937939;55;1251479;-77
2024/01/11 09:59:10;;;;;;;33.93;14.23;;;;;;;-1.98;100.00;101562.45;4921215;57;1142875;-78
2024/01/11 10:04:18;;;;;;;35.00;16.70;;;;;;;-1.89;100.00;101548.56;4982484;56;1183639;-75
2024/01/11 10:09:23;;;;;;;32.57;17.23;;;;;;;-1.82;100.00;101543.28;4977594;56;1142830;-75
2024/01/11 10:14:29;;;;;;;29.00;14.20;;;;;;;-1.75;100.00;101538.91;4995879;56;1142853;-78
2024/01/11 10:19:35;;;;;;;25.73;13.97;;;;;;;-1.69;100.00;101537.55;4981558;56;1142759;-76
2024/01/11 10:24:41;;;;;;;30.07;16.40;;;;;;;-1.64;100.00;101544.83;4927340;56;1143221;-78
2024/01/11 10:29:47;;;;;;;28.30;15.00;;;;;;;-1.58;100.00;101554.28;4974289;58;1142826;-76
2024/01/11 10:34:53;;;;;;;34.77;15.33;;;;;;;-1.52;100.00;101563.27;4921551;56;1143222;-75
2024/01/11 10:40:15;;;;;;;31.57;16.17;;;;;;;-1.48;100.00;101548.96;4958587;56;1142985;-77
2024/01/11 10:45:18;;;;;;;58.58;24.23;;;;;;;-1.43;100.00;101563.19;4887769;59;1143026;-75
2024/01/11 10:50:25;;;;;;;45.60;21.97;;;;;;;-1.38;100.00;101562.70;4920838;57;1143024;-78
2024/01/11 10:55:35;;;;;;;37.40;17.60;;;;;;;-1.35;100.00;101561.78;4944848;55;1142956;-76
2024/01/11 11:00:41;;;;;;;36.27;16.90;;;;;;;-1.31;100.00;101563.47;4926571;57;1142990;-74
2024/01/11 11:05:50;;;;;;;37.33;17.90;;;;;;;-1.27;100.00;101566.02;4966706;57;1142964;-75
2024/01/11 11:11:00;;;;;;;31.30;13.80;;;;;;;-1.24;100.00;101563.83;4896853;57;1143027;-75
2024/01/11 11:16:06;;;;;;;33.25;18.77;;;;;;;-1.21;100.00;101562.47;4932326;57;1143181;-78
2024/01/11 11:21:12;;;;;;;31.07;15.65;;;;;;;-1.18;100.00;101559.41;4975427;56;1142809;-78
2024/01/11 11:26:18;;;;;;;40.03;17.47;;;;;;;-1.15;100.00;101560.67;4923622;57;1143015;-79
2024/01/11 11:31:55;;;;;;;35.03;18.00;;;;;;;-1.10;100.00;101555.42;4938851;58;1143345;-75
2024/01/11 11:37:02;;;;;;;47.60;20.10;;;;;;;-1.07;100.00;101539.81;4961851;58;1143224;-78
2024/01/11 11:42:08;;;;;;;35.40;17.20;;;;;;;-1.06;100.00;101535.02;4951004;58;1143065;-75
2024/01/11 11:47:25;;;;;;;38.87;17.93;;;;;;;-1.02;100.00;101525.45;4946486;57;1142735;-78
2024/01/11 11:52:31;;;;;;;37.27;17.77;;;;;;;-0.99;100.00;101514.59;4915743;55;1142774;-76
2024/01/11 11:57:37;;;;;;;56.13;23.33;;;;;;;-0.95;100.00;101511.52;4991091;56;1142959;-77
2024/01/11 12:02:43;;;;;;;34.17;18.13;;;;;;;-0.91;100.00;101496.29;4939758;56;1143096;-80
2024/01/11 12:07:49;;;;;;;36.03;17.27;;;;;;;-0.88;100.00;101488.02;4914924;57;1142744;-79
2024/01/11 12:12:55;;;;;;;35.67;16.87;;;;;;;-0.86;100.00;101486.70;4928920;57;1142716;-71
2024/01/11 12:18:01;;;;;;;79.60;29.93;;;;;;;-0.83;100.00;101484.06;4934450;56;1142697;-78
2024/01/11 12:23:07;;;;;;;46.95;17.92;;;;;;;-0.79;100.00;101487.04;4938279;57;1143111;-74
2024/01/11 12:28:12;;;;;;;48.13;23.00;;;;;;;-0.74;100.00;101495.59;4980377;57;1143256;-77
2024/01/11 12:33:19;;;;;;;44.35;17.60;;;;;;;-0.71;100.00;101498.16;4912825;57;1142933;-76
2024/01/11 12:38:24;;;;;;;42.10;18.40;;;;;;;-0.68;100.00;101510.24;4982013;58;1142718;-78
2024/01/11 12:43:30;;;;;;;37.83;18.70;;;;;;;-0.64;100.00;101504.13;4927413;57;1142860;-78
2024/01/11 12:48:36;;;;;;;32.77;16.70;;;;;;;-0.62;100.00;101508.42;4898159;57;1142802;-78
2024/01/11 12:53:42;;;;;;;31.53;16.60;;;;;;;-0.60;100.00;101514.42;4937530;55;1142877;-82
2024/01/11 12:58:48;;;;;;;40.47;17.73;;;;;;;-0.58;100.00;101519.16;4968358;56;1142752;-78
2024/01/11 13:03:54;;;;;;;32.40;17.57;;;;;;;-0.56;100.00;101520.00;4954970;57;1143029;-79
2024/01/11 13:08:59;;;;;;;33.77;16.33;;;;;;;-0.55;100.00;101523.45;4961703;56;1142665;-80
2024/01/11 13:14:08;;;;;;;21.57;11.73;;;;;;;-0.54;100.00;101518.23;4941173;57;1143129;-77
2024/01/11 13:19:15;;;;;;;30.03;15.87;;;;;;;-0.50;100.00;101511.25;4950585;57;1143242;-75
2024/01/11 13:24:21;;;;;;;29.37;13.88;;;;;;;-0.49;100.00;101519.47;4951957;55;1142906;-79
2024/01/11 13:29:27;;;;;;;28.27;14.70;;;;;;;-0.48;100.00;101507.75;4972950;55;1142799;-82
2024/01/11 13:34:32;;;;;;;30.93;13.93;;;;;;;-0.46;100.00;101503.83;4954582;57;1142852;-80
2024/01/11 13:39:38;;;;;;;25.77;13.37;;;;;;;-0.46;100.00;101496.87;4958124;56;1142896;-81
2024/01/11 13:44:43;;;;;;;25.37;14.50;;;;;;;-0.45;100.00;101486.89;4981641;56;1142808;-78
2024/01/11 13:49:49;;;;;;;27.87;13.87;;;;;;;-0.43;100.00;101486.86;4965095;56;1142924;-81
2024/01/11 13:54:55;;;;;;;33.30;15.37;;;;;;;-0.42;100.00;101480.34;4965587;57;1142994;-80
2024/01/11 14:00:00;;;;;;;28.57;17.03;;;;;;;-0.39;100.00;101480.73;4987497;56;1143208;-78
2024/01/11 14:05:12;;;;;;;36.83;18.57;;;;;;;-0.38;100.00;101481.16;4980756;56;1143093;-78
2024/01/11 14:10:17;;;;;;;37.03;16.57;;;;;;;-0.34;100.00;101505.36;4990562;56;1143022;-80
2024/01/11 14:15:24;;;;;;;35.70;18.20;;;;;;;-0.29;100.00;101504.37;4963722;57;1152219;-81
2024/01/11 14:20:30;;;;;;;55.10;32.17;;;;;;;-0.28;100.00;101511.30;4965743;57;1142915;-77
2024/01/11 14:25:36;;;;;;;39.63;21.03;;;;;;;-0.26;100.00;101514.73;4973739;57;1142808;-78
2024/01/11 14:31:09;;;;;;;42.60;27.50;;;;;;;-0.27;100.00;101518.66;4950771;57;1142783;-80
2024/01/11 14:36:18;;;;;;;38.00;18.35;;;;;;;-0.26;100.00;101528.17;4770053;59;1142696;-81
2024/01/11 14:41:23;;;;;;;33.50;16.83;;;;;;;-0.23;100.00;101535.92;4817745;60;1143191;-77
2024/01/11 14:46:29;;;;;;;79.20;32.73;;;;;;;-0.22;100.00;101538.50;4829747;60;1143181;-80
2024/01/11 14:51:37;;;;;;;37.03;18.50;;;;;;;-0.19;100.00;101545.39;4813106;58;1143027;-76
2024/01/11 14:56:42;;;;;;;30.00;15.33;;;;;;;-0.15;100.00;101555.69;4813114;58;1143240;-76
2024/01/11 15:01:47;;;;;;;35.40;15.73;;;;;;;-0.13;100.00;101560.42;4836482;59;1142984;-78
2024/01/11 15:06:53;;;;;;;43.53;22.57;;;;;;;-0.10;100.00;101559.08;4807885;57;1142778;-81
2024/01/11 15:12:00;;;;;;;42.70;18.70;;;;;;;-0.08;100.00;101561.66;4959891;56;1142818;-83
2024/01/11 15:17:05;;;;;;;31.73;15.63;;;;;;;-0.08;100.00;101556.02;4945089;55;1142839;-85
2024/01/11 15:22:13;;;;;;;32.08;13.28;;;;;;;-0.08;100.00;101556.02;4954348;55;1143073;-80
2024/01/11 15:27:20;;;;;;;29.05;15.28;;;;;;;-0.03;100.00;101568.50;4962764;56;1143278;-76
2024/01/11 15:32:26;;;;;;;24.93;11.37;;;;;;;0.04;100.00;101578.78;4926767;57;1142977;-81
2024/01/11 15:37:33;;;;;;;39.85;19.17;;;;;;;0.04;100.00;101578.78;4928045;57;1140891;-80
2024/01/11 15:42:38;;;;;;;30.77;15.00;;;;;;;0.03;100.00;101568.82;4890563;56;1140973;-75
2024/01/11 15:48:04;;;;;;;27.50;13.63;;;;;;;0.04;100.00;101564.48;4885384;57;1140654;-77
2024/01/11 15:53:10;;;;;;;32.93;13.40;;;;;;;0.03;100.00;101557.12;4934535;56;1141497;-76
2024/01/11 15:58:16;;;;;;;22.73;13.27;;;;;;;0.04;100.00;101548.87;4992109;57;1141110;-76
2024/01/11 16:03:21;;;;;;;24.65;14.45;;;;;;;0.02;100.00;101561.05;4954554;57;1140743;-76
2024/01/11 16:08:27;;;;;;;27.58;13.88;;;;;;;-0.01;100.00;101558.94;4900245;58;1141060;-77
2024/01/11 16:13:32;;;;;;;37.63;16.47;;;;;;;-0.01;100.00;101561.98;4834981;57;1142880;-77
2024/01/11 16:18:38;;;;;;;32.63;15.93;;;;;;;-0.04;100.00;101577.19;5002278;57;1142819;-77
2024/01/11 16:23:44;;;;;;;25.27;12.93;;;;;;;-0.04;100.00;101578.49;4999163;57;1142642;-77
2024/01/11 16:28:49;;;;;;;28.95;12.65;;;;;;;-0.05;100.00;101577.22;4949835;57;1142948;-76
2024/01/11 16:33:56;;;;;;;24.87;12.17;;;;;;;-0.07;100.00;101572.03;4947503;57;1143233;-77
2024/01/11 16:39:03;;;;;;;22.00;12.33;;;;;;;-0.08;100.00;101575.96;4940621;57;1142857;-76
2024/01/11 16:44:11;;;;;;;34.83;16.33;;;;;;;-0.11;100.00;101566.91;4947710;57;1143051;-76
2024/01/11 16:49:17;;;;;;;43.30;18.80;;;;;;;-0.12;100.00;101580.34;4976622;56;1143121;-76
2024/01/11 16:54:23;;;;;;;41.02;18.25;;;;;;;-0.10;100.00;101593.33;4988457;57;1143029;-76
2024/01/11 16:59:28;;;;;;;73.40;32.55;;;;;;;-0.07;100.00;101602.38;4961582;56;1143166;-75
2024/01/11 17:04:34;;;;;;;58.00;24.80;;;;;;;-0.05;100.00;101604.08;5001892;56;1143165;-75
2024/01/11 17:09:40;;;;;;;58.10;25.30;;;;;;;-0.03;100.00;101599.72;4961602;56;1142730;-76
2024/01/11 17:14:46;;;;;;;81.47;30.57;;;;;;;-0.01;100.00;101599.25;5022966;56;1143019;-76
2024/01/11 17:19:51;;;;;;;54.67;23.13;;;;;;;0.01;100.00;101596.59;5022638;56;1142619;-75
2024/01/11 17:24:57;;;;;;;45.13;16.67;;;;;;;0.03;100.00;101600.03;4960490;57;1140688;-75
2024/01/11 17:30:03;;;;;;;77.27;32.27;;;;;;;0.00;100.00;101598.80;4993952;57;1140983;-77
2024/01/11 17:35:09;;;;;;;48.43;20.00;;;;;;;0.03;100.00;101608.27;4991153;57;1140854;-76
2024/01/11 17:40:15;;;;;;;56.28;24.30;;;;;;;0.02;100.00;101594.85;4970040;57;1140853;-75
2024/01/11 17:45:21;;;;;;;48.17;21.73;;;;;;;0.05;100.00;101602.16;4904191;57;1141159;-76
2024/01/11 17:50:26;;;;;;;40.88;21.07;;;;;;;0.07;100.00;101600.84;4778276;59;1141050;-76
2024/01/11 17:55:32;;;;;;;56.90;22.53;;;;;;;0.08;100.00;101609.92;4952741;57;1140776;-76
2024/01/11 18:00:37;;;;;;;48.87;23.03;;;;;;;0.11;100.00;101620.28;4984606;56;1140631;-75
2024/01/11 18:05:43;;;;;;;37.40;18.50;;;;;;;0.14;100.00;101626.73;4786646;59;1140885;-76
2024/01/11 18:10:49;;;;;;;43.60;20.30;;;;;;;0.18;100.00;101621.88;4981752;57;1140882;-77
2024/01/11 18:15:55;;;;;;;38.73;21.07;;;;;;;0.22;100.00;101618.78;4957782;56;1141116;-77
2024/01/11 18:21:01;;;;;;;51.10;28.83;;;;;;;0.28;100.00;101623.89;5011674;57;1141316;-76
2024/01/11 18:26:06;;;;;;;35.23;19.13;;;;;;;0.32;100.00;101628.14;5025617;57;1140751;-77
2024/01/11 18:31:22;;;;;;;35.70;17.90;;;;;;;0.38;100.00;101633.69;4987163;57;1150387;-78
2024/01/11 18:36:27;;;;;;;60.20;26.93;;;;;;;0.40;100.00;101637.13;4972328;58;1140880;-77
2024/01/11 18:41:33;;;;;;;56.20;27.33;;;;;;;0.39;100.00;101638.87;5004780;56;1140716;-77
2024/01/11 18:46:43;;;;;;;52.63;23.30;;;;;;;0.33;100.00;101637.22;4915950;57;1141001;-78
2024/01/11 18:51:48;;;;;;;42.90;21.27;;;;;;;0.32;100.00;101638.10;4862329;57;1141257;-77
2024/01/11 18:56:54;;;;;;;62.47;28.93;;;;;;;0.32;100.00;101633.34;4820430;57;1141091;-77
2024/01/11 19:01:59;;;;;;;54.18;26.05;;;;;;;0.29;100.00;101642.09;4928093;56;1141088;-77
2024/01/11 19:07:05;;;;;;;57.90;27.07;;;;;;;0.28;100.00;101645.56;4981904;57;1140879;-77
2024/01/11 19:12:11;;;;;;;61.43;27.03;;;;;;;0.28;100.00;101651.22;4983496;56;1140661;-77
2024/01/11 19:17:17;;;;;;;66.47;31.77;;;;;;;0.32;100.00;101658.06;4873407;57;1140984;-77
2024/01/11 19:22:23;;;;;;;34.80;16.97;;;;;;;0.35;100.00;101657.57;4922299;56;1141066;-77
2024/01/11 19:27:28;;;;;;;29.65;14.63;;;;;;;0.35;100.00;101666.67;4977252;56;1140763;-77
2024/01/11 19:32:35;;;;;;;52.30;25.25;;;;;;;0.36;100.00;101671.44;4966831;57;1140891;-80
2024/01/11 19:37:41;;;;;;;44.07;21.80;;;;;;;0.33;100.00;101670.19;4954872;56;1141562;-70
2024/01/11 19:42:47;;;;;;;38.20;21.73;;;;;;;0.29;100.00;101675.91;4981103;55;1141564;-71
2024/01/11 19:47:53;;;;;;;35.90;17.37;;;;;;;0.27;100.00;101678.97;4951311;56;1140668;-74
2024/01/11 19:52:58;;;;;;;43.30;18.00;;;;;;;0.23;100.00;101684.24;4965539;56;1140633;-71
2024/01/11 19:58:04;;;;;;;51.33;23.83;;;;;;;0.17;100.00;101689.53;4996514;55;1140990;-75
2024/01/11 20:03:10;;;;;;;51.27;22.27;;;;;;;0.17;100.00;101695.59;4978403;57;1141091;-76
2024/01/11 20:08:15;;;;;;;52.97;26.17;;;;;;;0.16;100.00;101708.18;4968292;57;1140939;-77
2024/01/11 20:13:21;;;;;;;48.33;21.87;;;;;;;0.20;100.00;101710.30;4958311;56;1140856;-77
2024/01/11 20:18:28;;;;;;;45.50;23.35;;;;;;;0.14;100.00;101715.62;4983148;56;1141099;-77
2024/01/11 20:23:41;;;;;;;50.40;23.75;;;;;;;0.09;100.00;101717.42;4989677;56;1141555;-77
2024/01/11 20:28:41;;;;;;;74.23;28.53;;;;;;;0.10;100.00;101717.41;4926250;55;1140812;-77
2024/01/11 20:33:46;;;;;;;82.93;29.97;;;;;;;0.07;100.00;101720.48;4936732;57;1140933;-77
2024/01/11 20:38:53;;;;;;;89.20;32.77;;;;;;;-0.02;100.00;101721.49;4930144;56;1141061;-77
2024/01/11 20:43:59;;;;;;;90.27;30.97;;;;;;;-0.06;100.00;101722.41;4946516;57;1142970;-77
2024/01/11 20:49:04;;;;;;;84.15;30.88;;;;;;;-0.04;100.00;101732.36;4926237;57;1143130;-77
2024/01/11 20:54:10;;;;;;;116.63;37.67;;;;;;;-0.03;100.00;101732.78;4973288;57;1142888;-77
2024/01/11 20:59:16;;;;;;;456.90;141.03;;;;;;;-0.08;100.00;101737.17;4944168;57;1145101;-77
2024/01/11 21:04:22;;;;;;;433.27;123.87;;;;;;;-0.15;100.00;101749.39;4973208;57;1147448;-77
2024/01/11 21:09:27;;;;;;;287.03;77.30;;;;;;;-0.17;100.00;101764.17;4972312;56;1147274;-76
2024/01/11 21:14:33;;;;;;;213.20;58.43;;;;;;;-0.23;100.00;101769.45;4996098;56;1145240;-77
2024/01/11 21:19:38;;;;;;;170.63;48.60;;;;;;;-0.27;100.00;101775.55;5057780;56;1144760;-78
2024/01/11 21:24:45;;;;;;;89.33;31.13;;;;;;;-0.33;100.00;101778.25;5055163;58;1144932;-77
2024/01/11 21:29:50;;;;;;;68.40;26.60;;;;;;;-0.39;100.00;101785.67;5005664;57;1142709;-78
2024/01/11 21:34:56;;;;;;;70.57;25.93;;;;;;;-0.43;100.00;101790.92;5043162;57;1142866;-78
2024/01/11 21:40:03;;;;;;;83.55;29.10;;;;;;;-0.43;100.00;101789.62;5009427;57;1142773;-78
2024/01/11 21:45:09;;;;;;;102.58;30.12;;;;;;;-0.48;100.00;101788.40;5028699;57;1142803;-80
2024/01/11 21:50:15;;;;;;;113.62;34.33;;;;;;;-0.51;100.00;101786.27;4954584;58;1193756;-78
2024/01/11 21:55:20;;;;;;;133.73;36.37;;;;;;;-0.53;100.00;101798.41;4943343;57;1200839;-78
2024/01/11 22:00:26;;;;;;;181.95;45.48;;;;;;;-0.52;100.00;101804.89;5079954;57;1144866;-80
2024/01/11 22:05:31;;;;;;;180.70;45.87;;;;;;;-0.52;100.00;101804.03;5067800;57;1144794;-77
2024/01/11 22:10:37;;;;;;;167.63;48.03;;;;;;;-0.54;100.00;101813.58;5061738;58;1145340;-77
2024/01/11 22:15:43;;;;;;;174.07;43.80;;;;;;;-0.56;100.00;101820.09;5051375;58;1144846;-77
2024/01/11 22:20:48;;;;;;;114.07;34.30;;;;;;;-0.61;100.00;101822.34;4976197;57;1145029;-78
2024/01/11 22:25:54;;;;;;;165.50;79.73;;;;;;;-0.76;100.00;101827.22;4932850;59;1144736;-78